createdAt,value
2022-10-11T00:04:59.256Z,9.30
2022-10-11T00:10:01.962Z,11.80
2022-10-11T00:15:05.781Z,10.80
2022-10-11T00:20:09.661Z,9.50
2022-10-11T00:25:13.355Z,9.10
2022-10-11T00:30:16.117Z,11.60
2022-10-11T00:35:18.807Z,11.10
2022-10-11T00:40:22.041Z,11.60
2022-10-11T00:45:27.893Z,10.40
2022-10-11T00:50:34.276Z,9.10
2022-10-11T00:55:48.348Z,11.00
2022-10-11T01:00:52.049Z,11.90
2022-10-11T01:05:55.874Z,13.40
2022-10-11T01:10:59.212Z,11.40
2022-10-11T01:16:33.741Z,10.90
2022-10-11T01:21:52.551Z,9.00
2022-10-11T01:27:29.324Z,8.60
2022-10-11T01:32:59.328Z,10.60
2022-10-11T01:38:11.396Z,11.80
2022-10-11T01:43:16.433Z,9.70
2022-10-11T01:48:19.426Z,12.30
2022-10-11T01:53:46.484Z,12.70
2022-10-11T01:58:58.333Z,12.40
2022-10-11T02:04:39.629Z,11.90
2022-10-11T02:09:52.547Z,12.40
2022-10-11T02:14:56.736Z,11.90
2022-10-11T02:20:03.890Z,13.90
2022-10-11T02:25:13.237Z,12.50
2022-10-11T02:30:16.909Z,11.40
2022-10-11T02:35:24.370Z,11.60
2022-10-11T02:40:31.080Z,14.30
2022-10-11T02:45:42.193Z,15.20
2022-10-11T02:50:45.112Z,14.00
2022-10-11T02:55:49.641Z,11.80
2022-10-11T03:00:52.526Z,10.70
2022-10-11T03:06:03.866Z,12.60
2022-10-11T03:11:07.045Z,14.50
2022-10-11T03:16:10.163Z,11.70
2022-10-11T03:21:13.559Z,14.10
2022-10-11T03:26:16.201Z,16.00
2022-10-11T03:31:18.949Z,13.70
2022-10-11T03:36:21.963Z,15.00
2022-10-11T03:41:24.663Z,14.40
2022-10-11T03:46:27.269Z,13.30
2022-10-11T03:51:30.370Z,13.30
2022-10-11T03:56:33.065Z,16.70
2022-10-11T04:01:38.209Z,16.20
2022-10-11T04:06:40.906Z,14.60
2022-10-11T04:11:43.621Z,23.70
2022-10-11T04:16:46.249Z,27.30
2022-10-11T04:21:49.326Z,15.20
2022-10-11T04:26:52.127Z,15.20
2022-10-11T04:31:54.823Z,18.60
2022-10-11T04:36:57.524Z,16.20
2022-10-11T04:42:00.225Z,18.30
2022-10-11T04:47:03.012Z,17.40
2022-10-11T04:52:06.047Z,16.60
2022-10-11T04:57:08.709Z,15.60
2022-10-11T05:02:11.389Z,14.70
2022-10-11T05:07:14.333Z,17.90
2022-10-11T05:12:17.029Z,16.00
2022-10-11T05:17:19.684Z,14.20
2022-10-11T05:22:22.303Z,18.40
2022-10-11T05:27:25.542Z,13.90
2022-10-11T05:32:28.329Z,18.30
2022-10-11T05:37:31.420Z,13.10
2022-10-11T05:42:34.270Z,17.90
2022-10-11T05:47:37.205Z,15.70
2022-10-11T05:52:39.880Z,12.40
2022-10-11T05:57:43.013Z,16.30
2022-10-11T06:02:45.665Z,16.40
2022-10-11T06:07:48.864Z,14.90
2022-10-11T06:12:51.841Z,20.10
2022-10-11T06:17:54.611Z,18.10
2022-10-11T06:22:58.929Z,13.80
2022-10-11T06:28:01.750Z,16.20
2022-10-11T06:33:05.077Z,17.50
2022-10-11T06:38:08.030Z,15.30
2022-10-11T06:43:10.825Z,18.30
2022-10-11T06:48:13.758Z,15.70
2022-10-11T06:53:16.455Z,17.10
2022-10-11T06:58:19.274Z,14.40
2022-10-11T07:03:22.231Z,12.80
2022-10-11T07:08:25.037Z,12.90
2022-10-11T07:13:28.247Z,10.40
2022-10-11T07:18:32.310Z,8.90
2022-10-11T07:23:35.387Z,8.40
2022-10-11T07:28:39.857Z,10.20
2022-10-11T07:33:42.951Z,8.80
2022-10-11T07:38:46.983Z,10.30
2022-10-11T07:43:52.237Z,7.80
2022-10-11T07:48:55.261Z,5.70
2022-10-11T07:53:59.771Z,6.80
2022-10-11T07:59:05.119Z,6.30
2022-10-11T08:04:07.945Z,5.80
2022-10-11T08:09:10.662Z,5.40
2022-10-11T08:14:13.398Z,5.10
2022-10-11T08:19:18.620Z,8.10
2022-10-11T08:24:21.416Z,6.30
2022-10-11T08:29:24.164Z,9.40
2022-10-11T08:34:26.993Z,3.60
2022-10-11T08:39:30.097Z,5.00
2022-10-11T08:44:58.275Z,7.30
2022-10-11T08:50:00.188Z,5.50
2022-10-11T08:55:12.529Z,5.10
2022-10-11T09:00:18.845Z,5.50
2022-10-11T09:05:25.654Z,5.60
2022-10-11T09:10:31.139Z,8.10
2022-10-11T09:15:43.875Z,7.00
2022-10-11T09:21:16.971Z,15.60
2022-10-11T09:26:29.845Z,7.00
2022-10-11T09:31:32.989Z,4.90
2022-10-11T09:36:54.383Z,4.10
2022-10-11T09:42:01.763Z,9.90
2022-10-11T09:47:06.224Z,8.80
2022-10-11T09:52:16.576Z,11.80
2022-10-11T09:57:36.534Z,7.20
2022-10-11T10:02:48.814Z,4.70
2022-10-11T10:08:09.839Z,8.30
2022-10-11T10:13:23.407Z,7.60
2022-10-11T10:18:32.202Z,4.20
2022-10-11T10:23:36.805Z,7.50
2022-10-11T10:28:53.763Z,6.20
2022-10-11T10:33:57.955Z,7.20
2022-10-11T10:39:36.359Z,5.10
2022-10-11T10:44:39.093Z,5.40
2022-10-11T10:50:01.260Z,5.70
2022-10-11T10:55:24.266Z,6.70
2022-10-11T11:00:36.300Z,8.40
2022-10-11T11:05:54.055Z,8.20
2022-10-11T11:11:34.491Z,7.50
2022-10-11T11:17:06.043Z,3.10
2022-10-11T11:22:32.497Z,6.00
2022-10-11T11:27:47.547Z,5.20
2022-10-11T11:33:10.482Z,5.60
2022-10-11T11:38:29.433Z,4.60
2022-10-11T11:44:00.952Z,7.70
2022-10-11T11:49:13.152Z,4.60
2022-10-11T11:54:44.911Z,6.00
2022-10-11T11:59:50.063Z,5.80
2022-10-11T12:04:53.336Z,5.70
2022-10-11T12:10:19.172Z,7.00
2022-10-11T12:15:26.217Z,4.50
2022-10-11T12:20:37.959Z,6.30
2022-10-11T12:25:42.467Z,4.20
2022-10-11T12:30:47.939Z,4.70
2022-10-11T12:35:53.441Z,5.00
2022-10-11T12:41:13.367Z,4.30
2022-10-11T12:46:28.130Z,4.30
2022-10-11T12:51:50.640Z,7.10
2022-10-11T12:57:12.188Z,5.30
2022-10-11T13:02:35.073Z,7.00
2022-10-11T13:07:41.443Z,3.80
2022-10-11T13:12:47.804Z,3.70
2022-10-11T13:17:52.908Z,7.80
2022-10-11T13:22:56.723Z,6.90
2022-10-11T13:27:59.655Z,9.50
2022-10-11T13:33:06.615Z,5.40
2022-10-11T13:38:18.338Z,3.50
2022-10-11T13:43:24.955Z,6.90
2022-10-11T13:48:31.676Z,5.00
2022-10-11T13:53:35.664Z,5.30
2022-10-11T13:58:47.723Z,8.70
2022-10-11T14:03:58.972Z,6.20
2022-10-11T14:09:01.974Z,7.60
2022-10-11T14:14:28.187Z,8.30
2022-10-11T14:24:33.370Z,6.10
2022-10-11T14:29:39.601Z,6.80
2022-10-11T14:34:47.721Z,4.40
2022-10-11T14:39:50.943Z,7.20
2022-10-11T14:44:53.648Z,3.90
2022-10-11T14:49:56.532Z,7.90
2022-10-11T14:54:59.233Z,8.30
2022-10-11T15:00:02.592Z,6.80
2022-10-11T15:05:06.266Z,6.50
2022-10-11T15:10:20.432Z,5.80
2022-10-11T15:15:25.654Z,7.20
2022-10-11T15:20:33.350Z,8.80
2022-10-11T15:25:37.823Z,7.30
2022-10-11T15:30:41.898Z,4.40
2022-10-11T15:35:44.885Z,6.60
2022-10-11T15:40:49.257Z,8.20
2022-10-11T15:45:52.290Z,4.10
2022-10-11T15:50:55.462Z,6.40
2022-10-11T15:56:02.079Z,6.60
2022-10-11T16:01:09.346Z,5.60
2022-10-11T16:06:13.347Z,7.10
2022-10-11T16:11:16.189Z,8.20
2022-10-11T16:16:18.949Z,9.30
2022-10-11T16:21:23.598Z,5.80
2022-10-11T16:26:26.310Z,10.10
2022-10-11T16:31:29.005Z,5.90
2022-10-11T16:36:32.065Z,6.90
2022-10-11T16:41:35.121Z,4.80
2022-10-11T16:46:37.921Z,8.80
2022-10-11T16:51:40.811Z,10.80
2022-10-11T16:56:43.849Z,13.70
2022-10-11T17:01:46.562Z,14.60
2022-10-11T17:06:49.849Z,8.60
2022-10-11T17:11:52.751Z,9.30
2022-10-11T17:16:55.362Z,9.30
2022-10-11T17:21:58.142Z,8.90
2022-10-11T17:27:00.716Z,16.00
2022-10-11T17:32:03.931Z,51.00
2022-10-11T17:37:08.966Z,61.20
2022-10-11T17:42:11.806Z,68.40
2022-10-11T17:47:15.130Z,44.70
2022-10-11T17:52:17.754Z,35.60
2022-10-11T17:57:20.513Z,25.50
2022-10-11T18:02:23.129Z,12.70
2022-10-11T18:07:25.808Z,15.10
2022-10-11T18:12:28.475Z,13.90
2022-10-11T18:17:31.216Z,15.00
2022-10-11T18:22:34.073Z,11.60
2022-10-11T18:27:36.762Z,14.40
2022-10-11T18:32:39.608Z,18.10
2022-10-11T18:37:42.512Z,17.60
2022-10-11T18:42:45.136Z,23.00
2022-10-11T18:47:51.306Z,18.70
2022-10-11T18:52:54.070Z,19.60
2022-10-11T18:57:57.811Z,18.10
2022-10-11T19:03:00.444Z,17.80
2022-10-11T19:08:03.087Z,19.20
2022-10-11T19:13:05.799Z,25.90
2022-10-11T19:18:09.258Z,17.60
2022-10-11T19:23:11.920Z,17.60
2022-10-11T19:28:15.816Z,15.90
2022-10-11T19:33:18.711Z,21.00
2022-10-11T19:43:29.162Z,24.70
2022-10-11T19:48:32.991Z,22.40
2022-10-11T19:53:36.314Z,17.40
2022-10-11T19:58:39.804Z,16.60
2022-10-11T20:03:44.033Z,15.50
2022-10-11T20:08:59.819Z,12.90
2022-10-11T20:14:08.789Z,12.70
2022-10-11T20:19:11.467Z,16.40
2022-10-11T20:24:14.200Z,16.40
2022-10-11T20:29:16.903Z,12.20
2022-10-11T20:34:19.496Z,9.80
2022-10-11T20:39:22.179Z,12.00
2022-10-11T20:44:24.918Z,21.10
2022-10-11T20:49:27.999Z,15.90
2022-10-11T20:54:30.905Z,16.40
2022-10-11T20:59:33.528Z,15.00
2022-10-11T21:04:36.306Z,14.60
2022-10-11T21:09:39.001Z,15.80
2022-10-11T21:14:42.312Z,11.60
2022-10-11T21:19:44.946Z,12.10
2022-10-11T21:24:47.531Z,20.90
2022-10-11T21:29:51.222Z,16.20
2022-10-11T21:34:53.826Z,21.70
2022-10-11T21:39:56.523Z,19.60
2022-10-11T21:44:59.155Z,19.00
2022-10-11T21:50:01.923Z,14.40
2022-10-11T21:55:05.210Z,13.90
2022-10-11T22:00:08.927Z,12.60
2022-10-11T22:05:11.598Z,14.10
2022-10-11T22:10:14.865Z,17.70
2022-10-11T22:15:17.563Z,12.90
2022-10-11T22:20:20.262Z,12.30
2022-10-11T22:25:23.070Z,15.20
2022-10-11T22:30:25.728Z,12.10
2022-10-11T22:35:29.672Z,11.90
2022-10-11T22:40:34.129Z,15.40
2022-10-11T22:45:36.742Z,14.50
2022-10-11T22:50:39.833Z,20.00
2022-10-11T22:55:42.735Z,17.40
2022-10-11T23:00:45.382Z,17.10
2022-10-11T23:05:58.298Z,18.10
2022-10-11T23:11:08.038Z,12.00
2022-10-11T23:16:12.441Z,12.90
2022-10-11T23:21:15.125Z,13.20
2022-10-11T23:26:17.754Z,12.90
2022-10-11T23:31:20.879Z,13.90
2022-10-11T23:36:25.525Z,15.90
2022-10-11T23:41:29.781Z,13.60
2022-10-11T23:46:32.417Z,14.20
2022-10-11T23:51:35.153Z,10.30
2022-10-11T23:56:38.243Z,14.00
